createdAt,value
2019-02-23T00:01:03.321Z,5.20
2019-02-23T00:03:31.221Z,5.30
2019-02-23T00:05:59.133Z,5.20
2019-02-23T00:08:27.089Z,5.00
2019-02-23T00:10:55.056Z,5.00
2019-02-23T00:13:30.929Z,4.90
2019-02-23T00:15:58.920Z,4.80
2019-02-23T00:18:29.840Z,4.70
2019-02-23T00:21:05.564Z,4.60
2019-02-23T00:23:36.392Z,4.50
2019-02-23T00:26:07.492Z,4.40
2019-02-23T00:28:38.445Z,4.40
2019-02-23T00:31:09.479Z,4.40
2019-02-23T00:33:37.378Z,4.30
2019-02-23T00:36:05.373Z,4.20
2019-02-23T00:38:36.129Z,4.30
2019-02-23T00:41:07.116Z,4.20
2019-02-23T00:43:35.003Z,4.20
2019-02-23T00:46:02.966Z,4.20
2019-02-23T00:48:33.990Z,4.00
2019-02-23T00:51:01.878Z,4.00
2019-02-23T00:53:29.793Z,4.00
2019-02-23T00:56:00.609Z,3.80
2019-02-23T00:58:32.038Z,3.90
2019-02-23T01:01:00.041Z,3.80
2019-02-23T01:03:28.018Z,3.80
2019-02-23T01:05:58.965Z,3.80
2019-02-23T01:08:30.072Z,3.80
2019-02-23T01:10:58.568Z,3.90
2019-02-23T01:13:29.616Z,3.90
2019-02-23T01:15:58.487Z,4.00
2019-02-23T01:18:26.639Z,4.10
2019-02-23T01:20:54.621Z,4.20
2019-02-23T01:23:22.626Z,4.30
2019-02-23T01:25:51.368Z,4.40
2019-02-23T01:28:22.197Z,4.50
2019-02-23T01:30:53.206Z,4.60
2019-02-23T01:33:24.521Z,4.60
2019-02-23T01:35:52.552Z,4.60
2019-02-23T01:38:20.796Z,4.60
2019-02-23T01:40:48.761Z,4.70
2019-02-23T01:43:16.661Z,4.70
2019-02-23T01:45:47.422Z,4.80
2019-02-23T01:48:18.237Z,4.80
2019-02-23T01:50:46.222Z,4.80
2019-02-23T01:53:17.202Z,4.90
2019-02-23T01:55:45.210Z,4.90
2019-02-23T01:58:16.197Z,4.80
2019-02-23T02:00:44.127Z,4.80
2019-02-23T02:03:12.156Z,4.60
2019-02-23T02:05:40.143Z,4.60
2019-02-23T02:08:08.093Z,4.70
2019-02-23T02:10:36.009Z,4.60
2019-02-23T02:13:03.949Z,4.50
2019-02-23T02:15:34.824Z,4.70
2019-02-23T02:18:02.730Z,4.70
2019-02-23T02:20:30.732Z,4.60
2019-02-23T02:22:58.633Z,4.60
2019-02-23T02:25:26.537Z,4.60
2019-02-23T02:27:54.770Z,4.70
2019-02-23T02:30:23.134Z,4.50
2019-02-23T02:32:51.117Z,4.40
2019-02-23T02:35:19.100Z,4.40
2019-02-23T02:37:47.123Z,4.50
2019-02-23T02:40:15.109Z,4.30
2019-02-23T02:42:43.276Z,4.40
2019-02-23T02:45:11.272Z,4.30
2019-02-23T02:47:39.252Z,4.30
2019-02-23T02:50:08.220Z,4.40
2019-02-23T02:52:39.441Z,4.40
2019-02-23T02:55:08.105Z,4.30
2019-02-23T02:57:36.358Z,4.20
2019-02-23T03:00:04.716Z,4.10
2019-02-23T03:02:32.715Z,3.90
2019-02-23T03:05:06.630Z,3.90
2019-02-23T03:07:34.533Z,3.80
2019-02-23T03:10:02.541Z,3.70
2019-02-23T03:12:33.250Z,3.70
2019-02-23T03:15:01.387Z,3.80
2019-02-23T03:17:29.329Z,3.90
2019-02-23T03:20:00.421Z,3.90
2019-02-23T03:22:34.636Z,3.80
2019-02-23T03:25:08.768Z,3.80
2019-02-23T03:27:36.669Z,3.80
2019-02-23T03:30:07.861Z,3.70
2019-02-23T03:32:36.067Z,3.60
2019-02-23T03:35:04.142Z,3.50
2019-02-23T03:37:32.350Z,3.40
2019-02-23T03:40:03.213Z,3.40
2019-02-23T03:42:34.311Z,3.20
2019-02-23T03:45:02.465Z,3.20
2019-02-23T03:47:30.650Z,3.30
2019-02-23T03:49:58.571Z,3.20
2019-02-23T03:52:26.547Z,3.30
2019-02-23T03:54:57.632Z,3.30
2019-02-23T03:57:26.135Z,3.40
2019-02-23T03:59:54.128Z,3.30
2019-02-23T04:02:22.135Z,3.30
2019-02-23T04:04:50.273Z,3.40
2019-02-23T04:07:18.250Z,3.50
2019-02-23T04:09:46.426Z,3.40
2019-02-23T04:12:14.613Z,3.40
2019-02-23T04:14:45.694Z,3.50
2019-02-23T04:17:19.756Z,3.40
2019-02-23T04:19:50.573Z,3.30
2019-02-23T04:22:21.545Z,3.30
2019-02-23T04:24:49.473Z,3.30
2019-02-23T04:27:17.397Z,3.30
2019-02-23T04:29:47.032Z,3.30
2019-02-23T04:32:15.345Z,3.30
2019-02-23T04:34:43.314Z,3.40
2019-02-23T04:37:11.470Z,3.40
2019-02-23T04:39:39.477Z,3.30
2019-02-23T04:42:07.846Z,3.30
2019-02-23T04:44:35.738Z,3.30
2019-02-23T04:47:06.802Z,3.30
2019-02-23T04:49:40.769Z,3.20
2019-02-23T04:52:08.768Z,3.30
2019-02-23T04:54:42.674Z,3.10
2019-02-23T04:57:10.571Z,3.20
2019-02-23T04:59:38.537Z,3.20
2019-02-23T05:02:06.555Z,3.30
2019-02-23T05:04:37.557Z,3.10
2019-02-23T05:07:05.479Z,3.20
2019-02-23T05:09:33.458Z,3.30
2019-02-23T05:12:01.365Z,3.20
2019-02-23T05:14:35.462Z,3.20
2019-02-23T05:17:06.586Z,3.20
2019-02-23T05:19:34.492Z,3.20
2019-02-23T05:22:02.704Z,3.10
2019-02-23T05:24:30.693Z,2.90
2019-02-23T05:26:58.665Z,3.00
2019-02-23T05:29:29.700Z,2.90
2019-02-23T05:31:57.871Z,2.90
2019-02-23T05:34:25.793Z,2.90
2019-02-23T05:36:53.698Z,3.00
2019-02-23T05:39:21.754Z,2.90
2019-02-23T05:41:49.658Z,2.80
2019-02-23T05:44:17.559Z,2.80
2019-02-23T05:46:45.464Z,2.80
2019-02-23T05:49:13.445Z,2.90
2019-02-23T05:51:44.281Z,2.90
2019-02-23T05:54:15.269Z,2.90
2019-02-23T05:56:43.193Z,2.80
2019-02-23T05:59:16.818Z,2.70
2019-02-23T06:01:44.843Z,2.60
2019-02-23T06:04:12.797Z,2.60
2019-02-23T06:06:40.790Z,2.30
2019-02-23T06:09:08.702Z,2.30
2019-02-23T06:11:36.618Z,2.10
2019-02-23T06:14:04.506Z,2.10
2019-02-23T06:16:38.517Z,2.00
2019-02-23T06:19:06.697Z,1.90
2019-02-23T06:21:37.423Z,1.80
2019-02-23T06:24:05.576Z,1.70
2019-02-23T06:26:33.607Z,1.70
2019-02-23T06:29:01.540Z,1.70
2019-02-23T06:31:29.454Z,1.60
2019-02-23T06:34:00.528Z,1.60
2019-02-23T06:36:31.565Z,1.60
2019-02-23T06:38:59.475Z,1.60
2019-02-23T06:41:30.498Z,1.50
2019-02-23T06:43:58.740Z,1.10
2019-02-23T06:46:26.840Z,1.20
2019-02-23T06:48:54.734Z,1.20
2019-02-23T06:51:22.638Z,1.10
2019-02-23T06:53:50.566Z,1.20
2019-02-23T06:56:18.618Z,1.30
2019-02-23T06:58:46.601Z,1.30
2019-02-23T07:01:14.733Z,1.30
2019-02-23T07:03:43.030Z,1.30
2019-02-23T07:06:11.038Z,1.20
2019-02-23T07:08:38.921Z,1.40
2019-02-23T07:11:07.058Z,1.50
2019-02-23T07:13:35.306Z,1.70
2019-02-23T07:16:06.608Z,1.90
2019-02-23T07:18:34.525Z,1.90
2019-02-23T07:21:02.409Z,2.00
2019-02-23T07:23:30.566Z,2.00
2019-02-23T07:25:58.540Z,2.20
2019-02-23T07:28:26.474Z,2.20
2019-02-23T07:30:54.401Z,2.30
2019-02-23T07:33:32.830Z,2.20
2019-02-23T07:35:55.055Z,2.40
2019-02-23T07:38:23.021Z,2.40
2019-02-23T07:40:50.936Z,2.50
2019-02-23T07:43:18.974Z,2.50
2019-02-23T07:45:46.940Z,2.50
2019-02-23T07:48:17.854Z,2.60
2019-02-23T07:50:46.074Z,2.60
2019-02-23T07:53:14.029Z,2.70
2019-02-23T07:55:42.108Z,2.80
2019-02-23T07:58:09.988Z,2.70
2019-02-23T08:00:38.103Z,2.70
2019-02-23T08:03:06.108Z,2.80
2019-02-23T08:05:34.018Z,2.70
2019-02-23T08:08:05.023Z,2.70
2019-02-23T08:10:33.282Z,2.70
2019-02-23T08:13:01.221Z,2.70
2019-02-23T08:15:29.185Z,2.80
2019-02-23T08:18:00.180Z,2.80
2019-02-23T08:20:28.093Z,3.00
2019-02-23T08:22:55.984Z,3.10
2019-02-23T08:25:27.188Z,3.10
2019-02-23T08:27:55.384Z,3.10
2019-02-23T08:30:23.360Z,3.10
2019-02-23T08:32:51.357Z,3.20
2019-02-23T08:35:19.561Z,3.30
2019-02-23T08:37:47.538Z,3.40
2019-02-23T08:40:16.920Z,3.30
2019-02-23T08:42:53.868Z,3.40
2019-02-23T08:45:21.840Z,3.50
2019-02-23T08:47:49.721Z,3.50
2019-02-23T08:50:17.653Z,3.50
2019-02-23T08:52:50.351Z,3.60
2019-02-23T08:55:18.936Z,3.50
2019-02-23T08:57:47.104Z,3.60
2019-02-23T09:00:15.781Z,3.60
2019-02-23T09:02:43.906Z,3.40
2019-02-23T09:05:11.908Z,3.50
2019-02-23T09:07:42.701Z,3.60
2019-02-23T09:10:16.907Z,3.50
2019-02-23T09:12:49.089Z,3.60
2019-02-23T09:15:17.102Z,3.70
2019-02-23T09:17:44.994Z,3.90
2019-02-23T09:20:13.527Z,4.00
2019-02-23T09:22:41.680Z,4.00
2019-02-23T09:25:09.705Z,4.10
2019-02-23T09:27:37.902Z,4.30
2019-02-23T09:30:08.779Z,4.30
2019-02-23T09:32:36.756Z,4.30
2019-02-23T09:35:04.769Z,4.20
2019-02-23T09:37:35.537Z,4.20
2019-02-23T09:40:03.528Z,4.40
2019-02-23T09:42:34.543Z,4.50
2019-02-23T09:45:02.446Z,4.40
2019-02-23T09:47:31.852Z,4.40
2019-02-23T09:49:59.790Z,4.40
2019-02-23T09:52:27.910Z,4.30
2019-02-23T09:54:56.085Z,4.40
2019-02-23T09:57:24.252Z,4.20
2019-02-23T10:00:01.265Z,4.30
2019-02-23T10:02:29.248Z,4.40
2019-02-23T10:05:02.976Z,4.70
2019-02-23T10:07:30.943Z,4.80
2019-02-23T10:09:59.066Z,5.00
2019-02-23T10:12:33.322Z,5.00
2019-02-23T10:15:01.352Z,5.00
2019-02-23T10:17:29.801Z,4.90
2019-02-23T10:19:57.909Z,4.90
2019-02-23T10:22:25.901Z,5.10
2019-02-23T10:24:53.774Z,5.10
2019-02-23T10:27:21.885Z,5.10
2019-02-23T10:29:50.076Z,5.20
2019-02-23T10:32:18.269Z,5.40
2019-02-23T10:34:49.197Z,5.40
2019-02-23T10:37:17.396Z,5.50
2019-02-23T10:39:45.315Z,5.40
2019-02-23T10:42:16.241Z,5.60
2019-02-23T10:44:44.202Z,5.60
2019-02-23T10:47:14.985Z,5.70
2019-02-23T10:49:45.422Z,5.80
2019-02-23T10:52:16.133Z,5.80
2019-02-23T10:54:44.029Z,6.00
2019-02-23T10:57:12.021Z,5.80
2019-02-23T10:59:39.913Z,5.50
2019-02-23T11:02:07.884Z,5.70
2019-02-23T11:04:38.868Z,5.80
2019-02-23T11:07:06.794Z,6.10
2019-02-23T11:09:41.749Z,5.80
2019-02-23T11:12:09.662Z,5.90
2019-02-23T11:14:37.818Z,6.30
2019-02-23T11:17:05.847Z,6.40
2019-02-23T11:19:33.738Z,6.60
2019-02-23T11:22:02.262Z,6.60
2019-02-23T11:24:30.172Z,6.70
2019-02-23T11:26:58.125Z,6.90
2019-02-23T11:29:26.318Z,7.10
2019-02-23T11:32:00.481Z,6.90
2019-02-23T11:34:31.130Z,6.90
2019-02-23T11:36:59.328Z,7.10
2019-02-23T11:39:30.355Z,7.40
2019-02-23T11:42:01.567Z,7.50
2019-02-23T11:44:29.536Z,7.50
2019-02-23T11:47:00.654Z,7.70
2019-02-23T11:49:27.367Z,7.80
2019-02-23T11:51:55.345Z,7.70
2019-02-23T11:54:24.856Z,7.70
2019-02-23T11:56:52.861Z,7.80
2019-02-23T11:59:23.864Z,8.00
2019-02-23T12:01:51.749Z,8.20
2019-02-23T12:04:19.635Z,8.50
2019-02-23T12:06:47.859Z,8.50
2019-02-23T12:09:15.748Z,8.70
2019-02-23T12:11:43.705Z,9.10
2019-02-23T12:14:11.668Z,8.70
2019-02-23T12:16:42.437Z,9.00
2019-02-23T12:19:13.457Z,8.80
2019-02-23T12:21:41.428Z,8.90
2019-02-23T12:24:09.585Z,9.30
2019-02-23T12:26:37.793Z,9.90
2019-02-23T12:29:08.756Z,10.00
2019-02-23T12:31:36.719Z,10.80
2019-02-23T12:34:04.689Z,11.00
2019-02-23T12:36:32.663Z,10.00
2019-02-23T12:39:01.433Z,10.70
2019-02-23T12:41:29.329Z,11.50
2019-02-23T12:43:57.495Z,11.60
2019-02-23T12:46:25.379Z,11.70
2019-02-23T12:48:53.276Z,11.70
2019-02-23T12:51:24.245Z,11.20
2019-02-23T12:53:52.138Z,10.80
2019-02-23T12:56:23.121Z,11.50
2019-02-23T12:58:59.854Z,11.30
2019-02-23T13:01:28.052Z,12.00
2019-02-23T13:03:55.949Z,12.10
2019-02-23T13:06:27.069Z,12.50
2019-02-23T13:09:15.936Z,12.00
2019-02-23T13:11:48.650Z,11.70
2019-02-23T13:14:24.051Z,11.90
2019-02-23T13:16:55.412Z,12.80
2019-02-23T13:19:54.718Z,13.70
2019-02-23T13:22:44.705Z,13.60
2019-02-23T13:25:54.578Z,13.20
2019-02-23T13:28:27.157Z,14.00
2019-02-23T13:31:40.353Z,14.10
2019-02-23T13:34:43.487Z,14.10
2019-02-23T13:37:37.148Z,15.00
2019-02-23T13:40:46.558Z,14.90
2019-02-23T13:43:54.583Z,14.70
2019-02-23T13:46:31.005Z,13.90
2019-02-23T13:49:47.329Z,14.50
2019-02-23T13:52:40.265Z,13.10
2019-02-23T13:55:17.743Z,12.60
2019-02-23T13:57:58.373Z,13.00
2019-02-23T14:00:59.158Z,14.00
2019-02-23T14:04:08.642Z,14.30
2019-02-23T14:07:08.245Z,13.40
2019-02-23T14:10:30.162Z,14.30
2019-02-23T14:13:28.917Z,14.70
2019-02-23T14:16:38.030Z,14.70
2019-02-23T14:19:48.298Z,14.60
2019-02-23T14:22:53.884Z,14.30
2019-02-23T14:26:07.046Z,14.70
2019-02-23T14:29:04.836Z,13.80
2019-02-23T14:31:46.157Z,14.30
2019-02-23T14:34:59.510Z,14.30
2019-02-23T14:37:51.136Z,14.00
2019-02-23T14:40:51.609Z,13.70
2019-02-23T14:43:37.250Z,13.40
2019-02-23T14:46:23.089Z,12.50
2019-02-23T14:49:08.619Z,13.10
2019-02-23T14:51:59.081Z,13.00
2019-02-23T14:55:00.717Z,12.70
2019-02-23T14:57:37.101Z,12.70
2019-02-23T15:00:09.330Z,12.70
2019-02-23T15:03:08.830Z,13.00
2019-02-23T15:05:39.456Z,12.90
2019-02-23T15:08:41.676Z,12.80
2019-02-23T15:11:26.135Z,12.50
2019-02-23T15:13:58.709Z,12.80
2019-02-23T15:16:58.650Z,12.50
2019-02-23T15:19:45.786Z,12.20
2019-02-23T15:22:19.152Z,12.40
2019-02-23T15:25:15.591Z,12.30
2019-02-23T15:28:02.998Z,12.10
2019-02-23T15:30:50.167Z,11.70
2019-02-23T15:33:49.445Z,11.30
2019-02-23T15:36:36.588Z,10.90
2019-02-23T15:39:23.718Z,10.40
2019-02-23T15:42:07.588Z,10.40
2019-02-23T15:44:57.852Z,10.30
2019-02-23T15:47:50.919Z,9.90
2019-02-23T15:50:21.747Z,9.80
2019-02-23T15:52:49.710Z,9.50
2019-02-23T15:55:26.026Z,9.40
2019-02-23T15:57:47.634Z,9.20
2019-02-23T16:00:15.700Z,9.40
2019-02-23T16:02:43.946Z,8.90
2019-02-23T16:05:11.935Z,9.00
2019-02-23T16:07:48.968Z,8.80
2019-02-23T16:10:20.028Z,8.80
2019-02-23T16:12:47.943Z,8.40
2019-02-23T16:15:15.928Z,8.20
2019-02-23T16:17:50.331Z,7.90
2019-02-23T16:20:18.586Z,7.70
2019-02-23T16:22:47.020Z,7.70
2019-02-23T16:25:17.737Z,7.70
2019-02-23T16:27:48.461Z,7.50
2019-02-23T16:30:16.455Z,7.50
2019-02-23T16:32:44.990Z,7.50
2019-02-23T16:35:13.001Z,7.20
2019-02-23T16:37:47.124Z,7.20
2019-02-23T16:40:21.401Z,7.10
2019-02-23T16:42:55.346Z,7.00
2019-02-23T16:45:25.142Z,6.90
2019-02-23T16:47:53.066Z,6.80
2019-02-23T16:50:23.838Z,6.50
2019-02-23T16:52:51.741Z,6.50
2019-02-23T16:55:19.891Z,6.40
2019-02-23T16:57:50.756Z,6.20
2019-02-23T17:00:18.739Z,5.90
2019-02-23T17:02:46.885Z,5.90
2019-02-23T17:05:14.831Z,5.70
2019-02-23T17:07:42.998Z,5.70
2019-02-23T17:10:11.135Z,5.60
2019-02-23T17:12:39.489Z,5.50
2019-02-23T17:15:10.452Z,5.50
2019-02-23T17:17:40.885Z,5.40
2019-02-23T17:20:08.877Z,5.20
2019-02-23T17:22:36.922Z,5.10
2019-02-23T17:25:05.148Z,5.10
2019-02-23T17:27:45.168Z,4.90
2019-02-23T17:30:13.176Z,4.70
2019-02-23T17:32:41.084Z,4.70
2019-02-23T17:35:09.089Z,4.50
2019-02-23T17:37:40.158Z,4.50
2019-02-23T17:40:08.408Z,4.20
2019-02-23T17:42:36.313Z,4.10
2019-02-23T17:45:04.735Z,4.00
2019-02-23T17:47:35.338Z,4.20
2019-02-23T17:50:03.338Z,4.30
2019-02-23T17:52:31.345Z,4.20
2019-02-23T17:54:59.277Z,4.20
2019-02-23T17:57:27.824Z,4.30
2019-02-23T17:59:55.954Z,4.20
2019-02-23T18:02:24.093Z,4.10
2019-02-23T18:04:52.126Z,4.20
2019-02-23T18:07:20.094Z,4.20
2019-02-23T18:09:50.836Z,4.30
2019-02-23T18:12:18.819Z,4.40
2019-02-23T18:14:49.798Z,4.40
2019-02-23T18:17:20.517Z,4.40
2019-02-23T18:19:51.659Z,4.30
2019-02-23T18:22:19.586Z,4.30
2019-02-23T18:24:47.580Z,4.20
2019-02-23T18:27:15.476Z,4.30
2019-02-23T18:29:43.504Z,4.20
2019-02-23T18:32:11.739Z,4.20
2019-02-23T18:34:39.784Z,4.20
2019-02-23T18:37:10.741Z,4.20
2019-02-23T18:39:38.944Z,4.30
2019-02-23T18:42:06.853Z,4.30
2019-02-23T18:44:42.237Z,4.30
2019-02-23T18:47:10.257Z,4.30
2019-02-23T18:49:38.333Z,4.30
2019-02-23T18:52:06.347Z,4.20
2019-02-23T18:54:34.542Z,4.20
2019-02-23T18:57:02.849Z,4.20
2019-02-23T18:59:30.861Z,4.20
2019-02-23T19:01:59.092Z,4.20
2019-02-23T19:04:27.362Z,4.20
2019-02-23T19:06:55.417Z,4.20
2019-02-23T19:09:23.657Z,4.20
2019-02-23T19:11:51.685Z,4.30
2019-02-23T19:14:19.587Z,4.30
2019-02-23T19:16:50.589Z,4.20
2019-02-23T19:19:18.581Z,4.20
2019-02-23T19:21:49.720Z,4.20
2019-02-23T19:24:20.130Z,4.30
2019-02-23T19:26:48.274Z,4.20
2019-02-23T19:29:19.321Z,4.20
2019-02-23T19:31:47.340Z,4.20
2019-02-23T19:34:15.404Z,4.20
2019-02-23T19:36:43.339Z,4.10
2019-02-23T19:39:11.352Z,4.10
2019-02-23T19:41:39.356Z,4.00
2019-02-23T19:44:07.555Z,3.90
2019-02-23T19:46:38.300Z,3.80
2019-02-23T19:49:12.094Z,3.70
2019-02-23T19:51:40.410Z,3.50
2019-02-23T19:54:08.398Z,3.50
2019-02-23T19:56:46.883Z,3.40
2019-02-23T19:59:13.451Z,3.30
2019-02-23T20:01:41.441Z,3.10
2019-02-23T20:04:09.593Z,2.90
2019-02-23T20:06:38.828Z,2.80
2019-02-23T20:09:09.545Z,2.50
2019-02-23T20:11:42.028Z,2.50
2019-02-23T20:14:14.396Z,2.50
2019-02-23T20:16:42.387Z,2.50
2019-02-23T20:19:10.280Z,2.50
2019-02-23T20:21:38.299Z,2.50
2019-02-23T20:24:06.230Z,2.50
2019-02-23T20:26:34.238Z,2.60
2019-02-23T20:29:02.456Z,2.60
2019-02-23T20:31:32.913Z,2.50
2019-02-23T20:34:03.769Z,2.50
2019-02-23T20:36:31.722Z,2.30
2019-02-23T20:38:59.877Z,2.30
2019-02-23T20:41:28.033Z,2.30
2019-02-23T20:43:58.792Z,2.20
2019-02-23T20:46:26.889Z,2.20
2019-02-23T20:48:55.306Z,2.20
2019-02-23T20:51:28.403Z,2.20
2019-02-23T20:53:56.441Z,2.20
2019-02-23T20:56:24.509Z,2.20
2019-02-23T20:58:52.464Z,2.10
2019-02-23T21:01:23.480Z,2.10
2019-02-23T21:03:51.994Z,2.00
2019-02-23T21:06:19.985Z,1.90
2019-02-23T21:08:51.157Z,1.80
2019-02-23T21:11:19.287Z,1.80
2019-02-23T21:13:47.667Z,1.80
2019-02-23T21:16:15.609Z,1.80
2019-02-23T21:18:43.636Z,1.70
2019-02-23T21:21:11.664Z,1.70
2019-02-23T21:23:39.674Z,1.80
2019-02-23T21:26:08.001Z,1.70
2019-02-23T21:28:39.230Z,1.70
2019-02-23T21:31:07.651Z,1.60
2019-02-23T21:33:35.910Z,1.60
2019-02-23T21:36:04.264Z,1.60
2019-02-23T21:38:38.190Z,1.60
2019-02-23T21:41:09.485Z,1.50
2019-02-23T21:43:40.715Z,1.40
2019-02-23T21:46:09.187Z,1.40
2019-02-23T21:48:37.319Z,1.40
2019-02-23T21:51:05.693Z,1.40
2019-02-23T21:53:33.789Z,1.40
2019-02-23T21:56:07.908Z,1.40
2019-02-23T21:58:36.215Z,1.30
2019-02-23T22:01:04.644Z,1.30
2019-02-23T22:03:33.224Z,1.30
2019-02-23T22:06:01.360Z,1.20
2019-02-23T22:08:29.474Z,1.20
2019-02-23T22:10:57.601Z,1.20
2019-02-23T22:13:25.771Z,1.20
2019-02-23T22:15:53.967Z,1.10
2019-02-23T22:18:22.082Z,1.20
2019-02-23T22:20:50.251Z,1.10
2019-02-23T22:23:18.430Z,1.10
2019-02-23T22:25:46.530Z,1.10
2019-02-23T22:28:14.785Z,1.10
2019-02-23T22:30:43.011Z,1.10
2019-02-23T22:33:11.133Z,1.00
2019-02-23T22:35:39.263Z,1.00
2019-02-23T22:38:07.437Z,1.10
2019-02-23T22:40:35.739Z,1.00
2019-02-23T22:43:03.924Z,1.00
2019-02-23T22:45:32.344Z,1.00
2019-02-23T22:48:00.624Z,1.00
2019-02-23T22:50:31.631Z,1.00
2019-02-23T22:53:02.904Z,0.90
2019-02-23T22:55:31.017Z,0.90
2019-02-23T22:57:59.206Z,0.80
2019-02-23T23:00:38.430Z,0.90
2019-02-23T23:03:06.584Z,0.80
2019-02-23T23:05:37.805Z,0.80
2019-02-23T23:08:08.995Z,0.70
2019-02-23T23:10:37.528Z,0.70
2019-02-23T23:13:05.568Z,0.60
2019-02-23T23:15:43.451Z,0.70
2019-02-23T23:18:11.594Z,0.70
2019-02-23T23:20:39.878Z,0.80
2019-02-23T23:23:11.567Z,0.70
2019-02-23T23:25:39.713Z,0.70
2019-02-23T23:28:07.828Z,0.70
2019-02-23T23:30:39.226Z,0.60
2019-02-23T23:33:08.734Z,0.70
2019-02-23T23:35:36.829Z,0.60
2019-02-23T23:38:05.083Z,0.60
2019-02-23T23:40:33.578Z,0.60
2019-02-23T23:43:01.644Z,0.70
2019-02-23T23:45:32.691Z,0.70
2019-02-23T23:48:01.282Z,0.70
2019-02-23T23:50:29.450Z,0.70
2019-02-23T23:52:57.743Z,0.70
2019-02-23T23:55:25.781Z,0.60
2019-02-23T23:57:58.349Z,0.70
